sensor_id;sensor_type;location;lat;lon;timestamp;pressure;altitude;pressure_sealevel;temperature;humidity
1472;BME280;963;42.644;23.336;2024-02-26T00:00:09;93743.56;;;9.55;75.09
1472;BME280;963;42.644;23.336;2024-02-26T00:02:36;93723.13;;;9.37;75.84
1472;BME280;963;42.644;23.336;2024-02-26T00:05:08;93744.16;;;9.41;75.01
1472;BME280;963;42.644;23.336;2024-02-26T00:07:33;93727.31;;;9.79;74.02
1472;BME280;963;42.644;23.336;2024-02-26T00:09:59;93710.19;;;9.96;73.10
1472;BME280;963;42.644;23.336;2024-02-26T00:12:24;93722.72;;;10.10;73.29
1472;BME280;963;42.644;23.336;2024-02-26T00:14:50;93712.56;;;10.08;72.75
1472;BME280;963;42.644;23.336;2024-02-26T00:17:15;93725.78;;;10.19;72.51
1472;BME280;963;42.644;23.336;2024-02-26T00:19:41;93723.16;;;10.19;72.45
1472;BME280;963;42.644;23.336;2024-02-26T00:22:06;93740.94;;;10.32;71.89
1472;BME280;963;42.644;23.336;2024-02-26T00:24:32;93717.66;;;10.34;71.62
1472;BME280;963;42.644;23.336;2024-02-26T00:26:59;93713.88;;;10.28;71.01
1472;BME280;963;42.644;23.336;2024-02-26T00:29:24;93721.81;;;10.39;71.15
1472;BME280;963;42.644;23.336;2024-02-26T00:31:51;93724.81;;;10.38;71.92
1472;BME280;963;42.644;23.336;2024-02-26T00:34:16;93718.44;;;10.39;72.32
1472;BME280;963;42.644;23.336;2024-02-26T00:36:41;93715.84;;;10.42;73.01
1472;BME280;963;42.644;23.336;2024-02-26T00:39:07;93714.41;;;10.48;73.71
1472;BME280;963;42.644;23.336;2024-02-26T00:41:32;93709.91;;;10.52;74.46
1472;BME280;963;42.644;23.336;2024-02-26T00:43:58;93712.94;;;10.58;74.20
1472;BME280;963;42.644;23.336;2024-02-26T00:46:23;93715.94;;;10.56;73.98
1472;BME280;963;42.644;23.336;2024-02-26T00:48:48;93711.41;;;10.50;74.32
1472;BME280;963;42.644;23.336;2024-02-26T00:51:14;93702.97;;;10.26;75.22
1472;BME280;963;42.644;23.336;2024-02-26T00:53:40;93709.78;;;10.34;75.32
1472;BME280;963;42.644;23.336;2024-02-26T00:56:05;93698.34;;;10.16;75.85
1472;BME280;963;42.644;23.336;2024-02-26T00:58:31;93689.34;;;10.14;77.47
1472;BME280;963;42.644;23.336;2024-02-26T01:00:57;93683.31;;;10.13;77.24
1472;BME280;963;42.644;23.336;2024-02-26T01:03:23;93686.78;;;10.21;76.89
1472;BME280;963;42.644;23.336;2024-02-26T01:05:48;93678.91;;;10.21;77.28
1472;BME280;963;42.644;23.336;2024-02-26T01:08:14;93679.81;;;10.43;76.51
1472;BME280;963;42.644;23.336;2024-02-26T01:10:39;93677.94;;;10.47;76.05
1472;BME280;963;42.644;23.336;2024-02-26T01:13:04;93682.81;;;10.41;76.14
1472;BME280;963;42.644;23.336;2024-02-26T01:15:30;93682.81;;;10.45;76.07
1472;BME280;963;42.644;23.336;2024-02-26T01:17:55;93673.09;;;10.49;76.10
1472;BME280;963;42.644;23.336;2024-02-26T01:20:20;93669.00;;;10.62;75.31
1472;BME280;963;42.644;23.336;2024-02-26T01:22:46;93694.97;;;10.71;75.40
1472;BME280;963;42.644;23.336;2024-02-26T01:25:12;93664.88;;;10.57;75.77
1472;BME280;963;42.644;23.336;2024-02-26T01:27:38;93691.22;;;10.68;75.72
1472;BME280;963;42.644;23.336;2024-02-26T01:30:04;93660.38;;;10.65;75.65
1472;BME280;963;42.644;23.336;2024-02-26T01:32:30;93678.09;;;10.75;75.71
1472;BME280;963;42.644;23.336;2024-02-26T01:34:56;93665.28;;;10.70;75.61
1472;BME280;963;42.644;23.336;2024-02-26T01:37:21;93661.16;;;10.69;75.87
1472;BME280;963;42.644;23.336;2024-02-26T01:39:47;93672.88;;;10.82;75.57
1472;BME280;963;42.644;23.336;2024-02-26T01:42:12;93667.97;;;10.77;75.53
1472;BME280;963;42.644;23.336;2024-02-26T01:44:38;93670.94;;;10.72;75.58
1472;BME280;963;42.644;23.336;2024-02-26T01:47:04;93662.66;;;10.70;75.55
1472;BME280;963;42.644;23.336;2024-02-26T01:49:30;93659.63;;;10.64;75.63
1472;BME280;963;42.644;23.336;2024-02-26T01:51:56;93663.41;;;10.71;75.86
1472;BME280;963;42.644;23.336;2024-02-26T01:54:22;93667.94;;;10.70;75.96
1472;BME280;963;42.644;23.336;2024-02-26T01:56:49;93667.25;;;10.80;75.26
1472;BME280;963;42.644;23.336;2024-02-26T01:59:15;93658.19;;;10.74;74.80
1472;BME280;963;42.644;23.336;2024-02-26T02:01:44;93669.44;;;10.71;74.48
1472;BME280;963;42.644;23.336;2024-02-26T02:04:12;93669.41;;;10.68;74.59
1472;BME280;963;42.644;23.336;2024-02-26T02:06:39;93647.22;;;10.61;74.57
1472;BME280;963;42.644;23.336;2024-02-26T02:09:08;93669.41;;;10.64;74.25
1472;BME280;963;42.644;23.336;2024-02-26T02:11:33;93660.78;;;10.71;74.46
1472;BME280;963;42.644;23.336;2024-02-26T02:13:59;93658.94;;;10.75;73.67
1472;BME280;963;42.644;23.336;2024-02-26T02:16:25;93663.44;;;10.78;73.84
1472;BME280;963;42.644;23.336;2024-02-26T02:18:50;93664.25;;;10.82;73.73
1472;BME280;963;42.644;23.336;2024-02-26T02:21:15;93654.47;;;10.82;73.61
1472;BME280;963;42.644;23.336;2024-02-26T02:23:41;93674.75;;;10.78;73.65
1472;BME280;963;42.644;23.336;2024-02-26T02:26:11;93657.81;;;10.76;73.77
1472;BME280;963;42.644;23.336;2024-02-26T02:28:36;93646.13;;;10.66;73.64
1472;BME280;963;42.644;23.336;2024-02-26T02:31:02;93650.63;;;10.65;74.18
1472;BME280;963;42.644;23.336;2024-02-26T02:33:29;93651.78;;;10.72;74.52
1472;BME280;963;42.644;23.336;2024-02-26T02:35:54;93641.59;;;10.63;74.68
1472;BME280;963;42.644;23.336;2024-02-26T02:38:20;93664.13;;;10.64;74.85
1472;BME280;963;42.644;23.336;2024-02-26T02:40:46;93652.13;;;10.63;74.62
1472;BME280;963;42.644;23.336;2024-02-26T02:43:11;93650.25;;;10.63;75.44
1472;BME280;963;42.644;23.336;2024-02-26T02:45:36;93649.13;;;10.64;74.87
1472;BME280;963;42.644;23.336;2024-02-26T02:48:02;93658.16;;;10.67;74.78
1472;BME280;963;42.644;23.336;2024-02-26T02:50:27;93661.16;;;10.69;74.95
1472;BME280;963;42.644;23.336;2024-02-26T02:52:54;93674.19;;;10.48;75.58
1472;BME280;963;42.644;23.336;2024-02-26T02:55:20;93674.59;;;10.50;75.78
1472;BME280;963;42.644;23.336;2024-02-26T02:57:45;93682.47;;;10.50;75.97
1472;BME280;963;42.644;23.336;2024-02-26T03:00:11;93676.84;;;10.51;75.88
1472;BME280;963;42.644;23.336;2024-02-26T03:02:37;93668.97;;;10.51;76.29
1472;BME280;963;42.644;23.336;2024-02-26T03:05:04;93662.19;;;10.47;75.83
1472;BME280;963;42.644;23.336;2024-02-26T03:07:29;93657.28;;;10.42;76.07
1472;BME280;963;42.644;23.336;2024-02-26T03:09:55;93673.13;;;10.56;76.19
1472;BME280;963;42.644;23.336;2024-02-26T03:12:21;93674.66;;;10.64;75.78
1472;BME280;963;42.644;23.336;2024-02-26T03:14:46;93679.19;;;10.67;75.92
1472;BME280;963;42.644;23.336;2024-02-26T03:17:12;93665.28;;;10.67;75.63
1472;BME280;963;42.644;23.336;2024-02-26T03:19:37;93667.53;;;10.68;75.35
1472;BME280;963;42.644;23.336;2024-02-26T03:22:03;93667.56;;;10.75;74.92
1472;BME280;963;42.644;23.336;2024-02-26T03:24:28;93651.03;;;10.71;75.08
1472;BME280;963;42.644;23.336;2024-02-26T03:26:54;93650.28;;;10.74;74.83
1472;BME280;963;42.644;23.336;2024-02-26T03:29:19;93643.50;;;10.73;74.86
1472;BME280;963;42.644;23.336;2024-02-26T03:31:44;93651.78;;;10.72;74.84
1472;BME280;963;42.644;23.336;2024-02-26T03:34:10;93635.94;;;10.61;75.24
1472;BME280;963;42.644;23.336;2024-02-26T03:36:37;93642.38;;;10.74;75.20
1472;BME280;963;42.644;23.336;2024-02-26T03:39:03;93638.59;;;10.68;75.45
1472;BME280;963;42.644;23.336;2024-02-26T03:41:35;93622.06;;;10.60;75.68
1472;BME280;963;42.644;23.336;2024-02-26T03:44:01;93643.13;;;10.71;75.50
1472;BME280;963;42.644;23.336;2024-02-26T03:46:26;93641.63;;;10.70;75.36
1472;BME280;963;42.644;23.336;2024-02-26T03:48:52;93648.03;;;10.73;75.67
1472;BME280;963;42.644;23.336;2024-02-26T03:51:17;93653.66;;;10.75;75.71
1472;BME280;963;42.644;23.336;2024-02-26T03:53:43;93636.75;;;10.76;75.62
1472;BME280;963;42.644;23.336;2024-02-26T03:56:08;93631.84;;;10.67;75.18
1472;BME280;963;42.644;23.336;2024-02-26T03:58:36;93669.50;;;10.78;75.66
1472;BME280;963;42.644;23.336;2024-02-26T04:01:01;93636.34;;;10.67;75.64
1472;BME280;963;42.644;23.336;2024-02-26T04:03:26;93640.84;;;10.66;76.06
1472;BME280;963;42.644;23.336;2024-02-26T04:05:52;93628.06;;;10.61;76.37
1472;BME280;963;42.644;23.336;2024-02-26T04:08:17;93632.56;;;10.60;76.15
1472;BME280;963;42.644;23.336;2024-02-26T04:10:43;93640.44;;;10.57;76.57
1472;BME280;963;42.644;23.336;2024-02-26T04:13:08;93626.50;;;10.46;76.83
1472;BME280;963;42.644;23.336;2024-02-26T04:15:34;93627.25;;;10.46;77.35
1472;BME280;963;42.644;23.336;2024-02-26T04:17:59;93620.53;;;10.56;76.90
1472;BME280;963;42.644;23.336;2024-02-26T04:20:25;93624.28;;;10.55;76.29
1472;BME280;963;42.644;23.336;2024-02-26T04:22:50;93631.69;;;10.39;77.46
1472;BME280;963;42.644;23.336;2024-02-26T04:25:16;93630.84;;;10.20;78.62
1472;BME280;963;42.644;23.336;2024-02-26T04:27:41;93619.34;;;10.43;77.19
1472;BME280;963;42.644;23.336;2024-02-26T04:30:07;93620.47;;;10.45;77.13
1472;BME280;963;42.644;23.336;2024-02-26T04:32:33;93649.69;;;10.33;77.79
1472;BME280;963;42.644;23.336;2024-02-26T04:35:00;93619.28;;;10.39;77.38
1472;BME280;963;42.644;23.336;2024-02-26T04:37:25;93613.28;;;10.35;77.84
1472;BME280;963;42.644;23.336;2024-02-26T04:39:58;93623.84;;;10.42;77.37
1472;BME280;963;42.644;23.336;2024-02-26T04:42:24;93631.75;;;10.46;77.72
1472;BME280;963;42.644;23.336;2024-02-26T04:44:50;93634.03;;;10.51;77.58
1472;BME280;963;42.644;23.336;2024-02-26T04:47:15;93619.03;;;10.55;77.56
1472;BME280;963;42.644;23.336;2024-02-26T04:49:40;93616.00;;;10.53;77.39
1472;BME280;963;42.644;23.336;2024-02-26T04:52:06;93658.84;;;10.57;77.37
1472;BME280;963;42.644;23.336;2024-02-26T04:54:31;93628.00;;;10.50;77.61
1472;BME280;963;42.644;23.336;2024-02-26T04:56:57;93622.00;;;10.46;77.97
1472;BME280;963;42.644;23.336;2024-02-26T04:59:22;93630.25;;;10.48;77.58
1472;BME280;963;42.644;23.336;2024-02-26T05:01:47;93627.63;;;10.45;77.66
1472;BME280;963;42.644;23.336;2024-02-26T05:04:13;93647.91;;;10.48;77.29
1472;BME280;963;42.644;23.336;2024-02-26T05:06:38;93679.00;;;10.39;76.03
1472;BME280;963;42.644;23.336;2024-02-26T05:09:03;93633.25;;;10.43;76.06
1472;BME280;963;42.644;23.336;2024-02-26T05:11:29;93649.06;;;10.54;75.60
1472;BME280;963;42.644;23.336;2024-02-26T05:13:54;93676.69;;;10.26;76.74
1472;BME280;963;42.644;23.336;2024-02-26T05:16:19;93662.59;;;10.52;76.08
1472;BME280;963;42.644;23.336;2024-02-26T05:18:47;93668.97;;;10.51;76.45
1472;BME280;963;42.644;23.336;2024-02-26T05:21:12;93665.47;;;10.37;76.67
1472;BME280;963;42.644;23.336;2024-02-26T05:23:38;93673.44;;;9.99;76.83
1472;BME280;963;42.644;23.336;2024-02-26T05:26:03;93675.00;;;10.04;75.65
1472;BME280;963;42.644;23.336;2024-02-26T05:28:28;93661.78;;;9.97;76.17
1472;BME280;963;42.644;23.336;2024-02-26T05:30:54;93681.00;;;10.05;75.59
1472;BME280;963;42.644;23.336;2024-02-26T05:33:19;93696.56;;;9.80;75.79
1472;BME280;963;42.644;23.336;2024-02-26T05:35:45;93673.38;;;9.92;75.46
1472;BME280;963;42.644;23.336;2024-02-26T05:38:10;93684.09;;;10.17;74.62
1472;BME280;963;42.644;23.336;2024-02-26T05:40:35;93689.09;;;10.29;74.65
1472;BME280;963;42.644;23.336;2024-02-26T05:43:01;93697.31;;;10.24;74.77
1472;BME280;963;42.644;23.336;2024-02-26T05:45:26;93703.09;;;10.41;74.29
1472;BME280;963;42.644;23.336;2024-02-26T05:47:52;93694.03;;;10.38;74.19
1472;BME280;963;42.644;23.336;2024-02-26T05:50:17;93711.00;;;10.48;74.20
1472;BME280;963;42.644;23.336;2024-02-26T05:52:43;93691.13;;;10.50;74.16
1472;BME280;963;42.644;23.336;2024-02-26T05:55:08;93687.34;;;10.48;74.16
1472;BME280;963;42.644;23.336;2024-02-26T05:57:34;93711.78;;;10.52;74.18
1472;BME280;963;42.644;23.336;2024-02-26T06:00:00;93697.53;;;10.53;74.27
1472;BME280;963;42.644;23.336;2024-02-26T06:02:29;93709.16;;;10.52;74.29
1472;BME280;963;42.644;23.336;2024-02-26T06:04:55;93698.63;;;10.52;73.85
1472;BME280;963;42.644;23.336;2024-02-26T06:07:20;93713.53;;;10.33;74.16
1472;BME280;963;42.644;23.336;2024-02-26T06:09:45;93706.03;;;10.36;74.41
1472;BME280;963;42.644;23.336;2024-02-26T06:12:11;93712.13;;;10.43;73.90
1472;BME280;963;42.644;23.336;2024-02-26T06:14:36;93709.53;;;10.50;73.33
1472;BME280;963;42.644;23.336;2024-02-26T06:17:02;93733.25;;;10.61;72.75
1472;BME280;963;42.644;23.336;2024-02-26T06:19:27;93714.47;;;10.59;72.85
1472;BME280;963;42.644;23.336;2024-02-26T06:21:52;93718.22;;;10.61;73.21
1472;BME280;963;42.644;23.336;2024-02-26T06:24:18;93714.47;;;10.59;72.90
1472;BME280;963;42.644;23.336;2024-02-26T06:26:45;93710.31;;;10.58;73.32
1472;BME280;963;42.644;23.336;2024-02-26T06:29:10;93717.09;;;10.59;73.47
1472;BME280;963;42.644;23.336;2024-02-26T06:31:36;93715.22;;;10.63;73.81
1472;BME280;963;42.644;23.336;2024-02-26T06:34:01;93716.69;;;10.57;73.77
1472;BME280;963;42.644;23.336;2024-02-26T06:36:26;93701.53;;;10.40;74.77
1472;BME280;963;42.644;23.336;2024-02-26T06:38:52;93712.13;;;10.47;74.19
1472;BME280;963;42.644;23.336;2024-02-26T06:41:19;93721.22;;;10.56;74.93
1472;BME280;963;42.644;23.336;2024-02-26T06:43:44;93717.81;;;10.56;74.63
1472;BME280;963;42.644;23.336;2024-02-26T06:46:10;93725.00;;;10.62;74.17
1472;BME280;963;42.644;23.336;2024-02-26T06:48:35;93700.16;;;10.53;74.07
1472;BME280;963;42.644;23.336;2024-02-26T06:51:02;93707.88;;;10.31;75.14
1472;BME280;963;42.644;23.336;2024-02-26T06:53:27;93718.56;;;10.56;74.18
1472;BME280;963;42.644;23.336;2024-02-26T06:55:53;93728.75;;;10.65;74.31
1472;BME280;963;42.644;23.336;2024-02-26T06:58:18;93718.25;;;10.65;74.14
1472;BME280;963;42.644;23.336;2024-02-26T07:00:44;93723.53;;;10.69;74.41
1472;BME280;963;42.644;23.336;2024-02-26T07:03:09;93705.13;;;10.72;74.05
1472;BME280;963;42.644;23.336;2024-02-26T07:05:34;93708.94;;;10.78;74.02
1472;BME280;963;42.644;23.336;2024-02-26T07:08:00;93715.28;;;10.70;74.08
1472;BME280;963;42.644;23.336;2024-02-26T07:10:25;93716.78;;;10.75;74.58
1472;BME280;963;42.644;23.336;2024-02-26T07:12:50;93709.28;;;10.77;74.04
1472;BME280;963;42.644;23.336;2024-02-26T07:15:16;93718.78;;;10.88;73.91
1472;BME280;963;42.644;23.336;2024-02-26T07:17:41;93710.09;;;10.84;73.88
1472;BME280;963;42.644;23.336;2024-02-26T07:20:12;93727.78;;;10.32;75.51
1472;BME280;963;42.644;23.336;2024-02-26T07:22:37;93725.97;;;9.96;76.59
1472;BME280;963;42.644;23.336;2024-02-26T07:25:03;93728.16;;;9.90;76.72
1472;BME280;963;42.644;23.336;2024-02-26T07:27:28;93731.09;;;10.22;75.79
1472;BME280;963;42.644;23.336;2024-02-26T07:29:54;93735.66;;;10.32;75.36
1472;BME280;963;42.644;23.336;2024-02-26T07:32:19;93728.56;;;10.37;75.21
1472;BME280;963;42.644;23.336;2024-02-26T07:34:44;93718.47;;;9.98;76.60
1472;BME280;963;42.644;23.336;2024-02-26T07:37:11;93727.06;;;10.36;75.62
1472;BME280;963;42.644;23.336;2024-02-26T07:39:36;93715.53;;;10.51;74.93
1472;BME280;963;42.644;23.336;2024-02-26T07:42:02;93728.00;;;10.61;75.04
1472;BME280;963;42.644;23.336;2024-02-26T07:44:28;93731.91;;;10.88;74.03
1472;BME280;963;42.644;23.336;2024-02-26T07:46:53;93730.50;;;11.09;73.45
1472;BME280;963;42.644;23.336;2024-02-26T07:49:19;93735.84;;;11.19;73.24
1472;BME280;963;42.644;23.336;2024-02-26T07:51:44;93725.31;;;11.23;72.93
1472;BME280;963;42.644;23.336;2024-02-26T07:54:10;93721.63;;;11.42;72.66
1472;BME280;963;42.644;23.336;2024-02-26T07:56:35;93717.06;;;11.32;72.29
1472;BME280;963;42.644;23.336;2024-02-26T07:59:01;93721.59;;;11.38;72.78
1472;BME280;963;42.644;23.336;2024-02-26T08:01:26;93715.63;;;11.48;72.08
1472;BME280;963;42.644;23.336;2024-02-26T08:03:53;93702.06;;;11.39;71.96
1472;BME280;963;42.644;23.336;2024-02-26T08:06:18;93699.78;;;11.34;72.35
1472;BME280;963;42.644;23.336;2024-02-26T08:08:43;93711.03;;;11.20;72.34
1472;BME280;963;42.644;23.336;2024-02-26T08:11:09;93704.19;;;11.09;72.76
1472;BME280;963;42.644;23.336;2024-02-26T08:13:34;93712.00;;;10.87;73.50
1472;BME280;963;42.644;23.336;2024-02-26T08:16:01;93719.22;;;11.05;72.81
1472;BME280;963;42.644;23.336;2024-02-26T08:18:26;93711.72;;;11.14;72.87
1472;BME280;963;42.644;23.336;2024-02-26T08:20:51;93701.53;;;11.02;73.14
1472;BME280;963;42.644;23.336;2024-02-26T08:23:17;93717.34;;;11.09;73.29
1472;BME280;963;42.644;23.336;2024-02-26T08:25:42;93710.88;;;10.85;73.46
1472;BME280;963;42.644;23.336;2024-02-26T08:28:08;93714.31;;;11.00;73.28
1472;BME280;963;42.644;23.336;2024-02-26T08:30:33;93704.53;;;10.96;73.06
1472;BME280;963;42.644;23.336;2024-02-26T08:32:59;93711.78;;;11.21;71.94
1472;BME280;963;42.644;23.336;2024-02-26T08:35:25;93706.50;;;11.17;72.58
1472;BME280;963;42.644;23.336;2024-02-26T08:37:50;93707.28;;;11.25;72.67
1472;BME280;963;42.644;23.336;2024-02-26T08:40:16;93699.75;;;11.27;72.34
1472;BME280;963;42.644;23.336;2024-02-26T08:42:41;93700.53;;;11.35;72.35
1472;BME280;963;42.644;23.336;2024-02-26T08:45:07;93697.56;;;11.50;71.67
1472;BME280;963;42.644;23.336;2024-02-26T08:47:33;93685.13;;;11.44;70.80
1472;BME280;963;42.644;23.336;2024-02-26T08:49:58;93702.38;;;11.23;72.03
1472;BME280;963;42.644;23.336;2024-02-26T08:52:24;93711.81;;;11.32;71.65
1472;BME280;963;42.644;23.336;2024-02-26T08:54:49;93703.19;;;11.38;71.63
1472;BME280;963;42.644;23.336;2024-02-26T08:57:15;93701.25;;;11.21;72.24
1472;BME280;963;42.644;23.336;2024-02-26T08:59:40;93711.03;;;11.27;72.24
1472;BME280;963;42.644;23.336;2024-02-26T09:02:07;93707.31;;;11.36;72.26
1472;BME280;963;42.644;23.336;2024-02-26T09:04:34;93687.78;;;11.47;71.41
1472;BME280;963;42.644;23.336;2024-02-26T09:07:01;93697.19;;;11.52;70.60
1472;BME280;963;42.644;23.336;2024-02-26T09:09:26;93705.16;;;11.77;70.53
1472;BME280;963;42.644;23.336;2024-02-26T09:11:52;93693.19;;;11.90;69.88
1472;BME280;963;42.644;23.336;2024-02-26T09:14:18;93695.06;;;12.11;69.78
1472;BME280;963;42.644;23.336;2024-02-26T09:16:43;93682.63;;;12.22;69.14
1472;BME280;963;42.644;23.336;2024-02-26T09:19:09;93678.09;;;12.15;68.65
1472;BME280;963;42.644;23.336;2024-02-26T09:21:34;93690.91;;;12.35;67.75
1472;BME280;963;42.644;23.336;2024-02-26T09:23:59;93691.66;;;12.25;67.79
1472;BME280;963;42.644;23.336;2024-02-26T09:26:25;93684.88;;;12.24;67.82
1472;BME280;963;42.644;23.336;2024-02-26T09:28:50;93681.88;;;12.14;68.86
1472;BME280;963;42.644;23.336;2024-02-26T09:31:17;93667.56;;;12.33;67.63
1472;BME280;963;42.644;23.336;2024-02-26T09:33:43;93680.38;;;12.28;68.09
1472;BME280;963;42.644;23.336;2024-02-26T09:36:09;93683.38;;;12.37;67.18
1472;BME280;963;42.644;23.336;2024-02-26T09:38:36;93654.75;;;12.17;67.00
1472;BME280;963;42.644;23.336;2024-02-26T09:41:06;93669.06;;;12.24;66.74
1472;BME280;963;42.644;23.336;2024-02-26T09:43:35;93671.34;;;12.00;67.23
1472;BME280;963;42.644;23.336;2024-02-26T09:46:01;93689.03;;;12.03;67.70
1472;BME280;963;42.644;23.336;2024-02-26T09:48:29;93669.84;;;11.99;67.50
1472;BME280;963;42.644;23.336;2024-02-26T09:50:54;93666.06;;;12.07;67.83
1472;BME280;963;42.644;23.336;2024-02-26T09:53:21;93686.41;;;12.32;67.21
1472;BME280;963;42.644;23.336;2024-02-26T09:55:47;93671.34;;;12.32;67.00
1472;BME280;963;42.644;23.336;2024-02-26T09:58:12;93672.09;;;12.33;66.73
1472;BME280;963;42.644;23.336;2024-02-26T10:00:47;93677.34;;;12.40;66.35
1472;BME280;963;42.644;23.336;2024-02-26T10:03:15;93658.53;;;12.09;67.14
1472;BME280;963;42.644;23.336;2024-02-26T10:05:42;93651.34;;;12.24;66.93
1472;BME280;963;42.644;23.336;2024-02-26T10:08:11;93665.69;;;12.34;67.14
1472;BME280;963;42.644;23.336;2024-02-26T10:10:38;93651.34;;;12.20;66.80
1472;BME280;963;42.644;23.336;2024-02-26T10:13:04;93663.03;;;12.34;66.76
1472;BME280;963;42.644;23.336;2024-02-26T10:15:35;93667.56;;;12.30;66.82
1472;BME280;963;42.644;23.336;2024-02-26T10:18:04;93655.50;;;12.29;66.78
1472;BME280;963;42.644;23.336;2024-02-26T10:20:29;93661.53;;;12.26;66.84
1472;BME280;963;42.644;23.336;2024-02-26T10:22:57;93639.69;;;12.36;66.56
1472;BME280;963;42.644;23.336;2024-02-26T10:25:22;93618.97;;;12.24;66.58
1472;BME280;963;42.644;23.336;2024-02-26T10:27:47;93634.03;;;12.34;66.25
1472;BME280;963;42.644;23.336;2024-02-26T10:30:16;93635.13;;;12.47;66.31
1472;BME280;963;42.644;23.336;2024-02-26T10:32:44;93639.63;;;12.50;66.16
1472;BME280;963;42.644;23.336;2024-02-26T10:35:10;93647.94;;;12.52;65.58
1472;BME280;963;42.644;23.336;2024-02-26T10:37:35;93638.50;;;12.51;65.33
1472;BME280;963;42.644;23.336;2024-02-26T10:40:01;93627.56;;;12.60;64.99
1472;BME280;963;42.644;23.336;2024-02-26T10:42:27;93635.44;;;12.77;64.88
1472;BME280;963;42.644;23.336;2024-02-26T10:44:52;93613.25;;;12.64;63.59
1472;BME280;963;42.644;23.336;2024-02-26T10:47:17;93611.72;;;12.70;63.87
1472;BME280;963;42.644;23.336;2024-02-26T10:49:46;93619.16;;;12.90;63.47
1472;BME280;963;42.644;23.336;2024-02-26T10:52:15;93633.91;;;12.83;63.52
1472;BME280;963;42.644;23.336;2024-02-26T10:54:47;93626.69;;;12.95;63.57
1472;BME280;963;42.644;23.336;2024-02-26T10:57:13;93626.75;;;12.80;63.50
1472;BME280;963;42.644;23.336;2024-02-26T10:59:42;93608.66;;;12.82;63.54
1472;BME280;963;42.644;23.336;2024-02-26T11:02:08;93620.28;;;12.96;63.29
1472;BME280;963;42.644;23.336;2024-02-26T11:04:35;93621.44;;;12.84;63.46
1472;BME280;963;42.644;23.336;2024-02-26T11:07:01;93617.63;;;13.03;62.96
1472;BME280;963;42.644;23.336;2024-02-26T11:09:27;93643.25;;;13.09;62.59
1472;BME280;963;42.644;23.336;2024-02-26T11:11:53;93622.09;;;13.13;61.71
1472;BME280;963;42.644;23.336;2024-02-26T11:14:20;93625.88;;;13.12;62.20
1472;BME280;963;42.644;23.336;2024-02-26T11:16:47;93618.31;;;13.14;61.87
1472;BME280;963;42.644;23.336;2024-02-26T11:19:15;93623.66;;;13.03;61.75
1472;BME280;963;42.644;23.336;2024-02-26T11:21:41;93635.75;;;12.94;62.04
1472;BME280;963;42.644;23.336;2024-02-26T11:24:13;93628.16;;;13.06;61.81
1472;BME280;963;42.644;23.336;2024-02-26T11:26:46;93619.84;;;13.08;61.88
1472;BME280;963;42.644;23.336;2024-02-26T11:29:19;93621.31;;;13.16;61.58
1472;BME280;963;42.644;23.336;2024-02-26T11:31:46;93610.41;;;13.14;61.91
1472;BME280;963;42.644;23.336;2024-02-26T11:34:12;93618.34;;;13.07;62.45
1472;BME280;963;42.644;23.336;2024-02-26T11:36:38;93607.69;;;13.28;61.77
1472;BME280;963;42.644;23.336;2024-02-26T11:39:04;93621.34;;;13.20;61.82
1472;BME280;963;42.644;23.336;2024-02-26T11:41:31;93622.78;;;13.31;61.20
1472;BME280;963;42.644;23.336;2024-02-26T11:44:03;93611.78;;;13.36;61.41
1472;BME280;963;42.644;23.336;2024-02-26T11:46:32;93616.75;;;13.27;61.22
1472;BME280;963;42.644;23.336;2024-02-26T11:51:53;93606.09;;;13.45;61.03
1472;BME280;963;42.644;23.336;2024-02-26T11:57:27;93608.31;;;13.54;59.34
1472;BME280;963;42.644;23.336;2024-02-26T12:00:10;93603.38;;;13.56;58.72
1472;BME280;963;42.644;23.336;2024-02-26T12:05:15;93595.47;;;13.56;58.36
1472;BME280;963;42.644;23.336;2024-02-26T12:07:46;93596.25;;;13.53;58.15
1472;BME280;963;42.644;23.336;2024-02-26T12:13:07;93601.25;;;13.88;58.14
1472;BME280;963;42.644;23.336;2024-02-26T12:15:36;93617.53;;;13.83;57.94
1472;BME280;963;42.644;23.336;2024-02-26T12:18:07;93595.97;;;13.88;57.86
1472;BME280;963;42.644;23.336;2024-02-26T12:20:33;93615.19;;;13.92;57.82
1472;BME280;963;42.644;23.336;2024-02-26T12:22:59;93597.91;;;13.84;57.66
1472;BME280;963;42.644;23.336;2024-02-26T12:25:28;93599.06;;;13.80;57.15
1472;BME280;963;42.644;23.336;2024-02-26T12:27:54;93590.78;;;13.77;56.86
1472;BME280;963;42.644;23.336;2024-02-26T12:30:21;93613.91;;;14.15;56.91
1472;BME280;963;42.644;23.336;2024-02-26T12:32:48;93614.63;;;14.19;55.81
1472;BME280;963;42.644;23.336;2024-02-26T12:35:14;93593.69;;;13.90;56.00
1472;BME280;963;42.644;23.336;2024-02-26T12:37:41;93612.13;;;13.97;55.90
1472;BME280;963;42.644;23.336;2024-02-26T12:40:08;93612.81;;;14.05;56.08
1472;BME280;963;42.644;23.336;2024-02-26T12:42:34;93602.81;;;14.27;54.96
1472;BME280;963;42.644;23.336;2024-02-26T12:45:05;93600.75;;;14.45;54.78
1472;BME280;963;42.644;23.336;2024-02-26T12:47:41;93618.34;;;14.66;54.16
1472;BME280;963;42.644;23.336;2024-02-26T12:50:08;93601.34;;;14.63;53.92
1472;BME280;963;42.644;23.336;2024-02-26T12:52:35;93606.47;;;14.78;53.46
1472;BME280;963;42.644;23.336;2024-02-26T12:55:02;93606.81;;;14.42;54.08
1472;BME280;963;42.644;23.336;2024-02-26T12:57:30;93589.94;;;14.70;53.68
1472;BME280;963;42.644;23.336;2024-02-26T12:59:57;93594.38;;;14.77;52.80
1472;BME280;963;42.644;23.336;2024-02-26T13:02:23;93594.72;;;14.45;53.34
1472;BME280;963;42.644;23.336;2024-02-26T13:04:49;93585.97;;;14.51;52.60
1472;BME280;963;42.644;23.336;2024-02-26T13:07:15;93584.41;;;14.57;52.56
1472;BME280;963;42.644;23.336;2024-02-26T13:09:41;93580.28;;;14.53;52.47
1472;BME280;963;42.644;23.336;2024-02-26T13:12:07;93586.34;;;14.53;51.77
1472;BME280;963;42.644;23.336;2024-02-26T13:14:33;93593.19;;;14.47;51.44
1472;BME280;963;42.644;23.336;2024-02-26T13:17:00;93601.25;;;14.70;51.41
1472;BME280;963;42.644;23.336;2024-02-26T13:19:25;93592.78;;;14.52;51.84
1472;BME280;963;42.644;23.336;2024-02-26T13:21:51;93592.53;;;14.36;52.09
1472;BME280;963;42.644;23.336;2024-02-26T13:24:20;93599.09;;;14.21;52.14
1472;BME280;963;42.644;23.336;2024-02-26T13:26:46;93602.00;;;14.33;51.98